Time,TemperatureF,DewpointF,PressureIn,WindDirection,WindDirectionDegrees,WindSpeedMPH,WindSpeedGustMPH,Humidity,HourlyPrecipIn,Conditions,Clouds,dailyrainin,SoftwareType,DateUTC
2013-04-03 00:00:00,29.8,13.4,29.99,SW,225,3.5,3.5,50,0.00,CLR,,0.00,WeatherDisplay:10.37,2013-04-03 04:00:00,
2013-04-03 00:01:00,29.8,13.4,29.99,SW,225,3.5,3.5,50,0.00,CLR,,0.00,WeatherDisplay:10.37,2013-04-03 04:01:00,
2013-04-03 00:04:00,29.8,13.4,29.99,SW,225,3.5,3.5,50,0.00,CLR,,0.00,WeatherDisplay:10.37,2013-04-03 04:04:00,
2013-04-03 00:09:00,29.5,13.6,29.99,SW,225,3.5,3.5,51,0.00,CLR,,0.00,WeatherDisplay:10.37,2013-04-03 04:09:00,
2013-04-03 00:14:00,29.3,13.8,29.99,WSW,248,5.8,5.8,52,0.00,CLR,,0.00,WeatherDisplay:10.37,2013-04-03 04:14:00,
2013-04-03 00:19:00,29.5,14.0,29.99,SW,232,5.0,6.0,52,0.00,CLR,,0.00,WeatherDisplay:10.37,2013-04-03 04:19:00,
2013-04-03 00:25:00,29.3,13.8,29.99,SW,225,3.7,3.7,52,0.00,CLR,,0.00,WeatherDisplay:10.37,2013-04-03 04:25:00,
2013-04-03 00:30:00,29.3,13.8,29.99,SW,225,4.6,4.6,52,0.00,CLR,,0.00,WeatherDisplay:10.37,2013-04-03 04:30:00,
2013-04-03 00:35:00,29.5,14.0,29.99,WSW,248,3.5,3.6,52,0.00,CLR,,0.00,WeatherDisplay:10.37,2013-04-03 04:35:00,
2013-04-03 00:40:00,29.3,13.8,29.99,SW,225,3.5,3.5,52,0.00,CLR,,0.00,WeatherDisplay:10.37,2013-04-03 04:40:00,
2013-04-03 00:45:00,28.9,13.9,29.99,SW,225,4.6,4.6,53,0.00,CLR,,0.00,WeatherDisplay:10.37,2013-04-03 04:45:00,
2013-04-03 00:50:00,28.8,14.2,29.99,SW,225,4.7,4.7,54,0.00,CLR,,0.00,WeatherDisplay:10.37,2013-04-03 04:50:00,
2013-04-03 00:55:00,29.1,14.5,29.99,SW,225,5.8,5.8,54,0.00,CLR,,0.00,WeatherDisplay:10.37,2013-04-03 04:55:00,
2013-04-03 01:00:00,28.9,14.3,29.99,SW,225,4.7,4.7,54,0.00,CLR,,0.00,WeatherDisplay:10.37,2013-04-03 05:00:00,
2013-04-03 01:05:00,28.9,14.3,29.99,SW,225,5.8,5.8,54,0.00,CLR,,0.00,WeatherDisplay:10.37,2013-04-03 05:05:00,
2013-04-03 01:10:00,28.9,14.7,29.99,SW,225,5.8,5.8,55,0.00,CLR,,0.00,WeatherDisplay:10.37,2013-04-03 05:10:00,
2013-04-03 01:15:00,28.9,14.7,29.99,SW,225,4.7,4.7,55,0.00,CLR,,0.00,WeatherDisplay:10.37,2013-04-03 05:15:00,
2013-04-03 01:20:00,28.8,14.6,29.99,SW,225,5.8,5.8,55,0.00,CLR,,0.00,WeatherDisplay:10.37,2013-04-03 05:20:00,
2013-04-03 01:25:00,28.9,14.7,29.99,SW,225,5.3,5.3,55,0.00,CLR,,0.00,WeatherDisplay:10.37,2013-04-03 05:25:00,
2013-04-03 01:30:00,29.1,14.9,29.99,SW,225,4.7,4.7,55,0.00,CLR,,0.00,WeatherDisplay:10.37,2013-04-03 05:30:00,
2013-04-03 01:35:00,29.1,14.9,29.99,SW,225,5.3,5.3,55,0.00,CLR,,0.00,WeatherDisplay:10.37,2013-04-03 05:35:00,
2013-04-03 01:40:00,29.1,14.9,29.99,SW,225,4.6,4.6,55,0.00,CLR,,0.00,WeatherDisplay:10.37,2013-04-03 05:40:00,
2013-04-03 01:45:00,28.9,14.7,29.99,SW,225,5.8,5.8,55,0.00,CLR,,0.00,WeatherDisplay:10.37,2013-04-03 05:45:00,
2013-04-03 01:50:00,29.1,14.9,29.99,SW,225,6.9,6.9,55,0.00,CLR,,0.00,WeatherDisplay:10.37,2013-04-03 05:50:00,
2013-04-03 01:55:00,28.9,14.7,29.99,SW,225,4.6,4.6,55,0.00,CLR,,0.00,WeatherDisplay:10.37,2013-04-03 05:55:00,
2013-04-03 02:00:00,28.8,14.6,29.99,SW,225,5.8,5.8,55,0.00,CLR,,0.00,WeatherDisplay:10.37,2013-04-03 06:00:00,
2013-04-03 02:05:00,28.8,15.1,30.00,SW,225,5.8,5.8,56,0.00,CLR,,0.00,WeatherDisplay:10.37,2013-04-03 06:05:00,
2013-04-03 02:10:00,28.9,15.2,30.00,WSW,248,5.8,5.8,56,0.00,CLR,,0.00,WeatherDisplay:10.37,2013-04-03 06:10:00,
2013-04-03 02:15:00,28.8,15.1,29.99,SW,225,4.6,4.6,56,0.00,CLR,,0.00,WeatherDisplay:10.37,2013-04-03 06:15:00,
2013-04-03 02:20:00,28.6,14.9,29.99,SW,225,4.7,4.7,56,0.00,CLR,,0.00,WeatherDisplay:10.37,2013-04-03 06:20:00,
2013-04-03 02:25:00,28.2,14.9,29.99,SW,225,4.6,4.6,57,0.00,CLR,,0.00,WeatherDisplay:10.37,2013-04-03 06:25:00,
2013-04-03 02:30:00,28.2,15.3,29.99,SW,225,4.6,4.6,58,0.00,CLR,,0.00,WeatherDisplay:10.37,2013-04-03 06:30:00,
2013-04-03 02:35:00,28.2,15.3,29.99,SW,225,4.6,4.6,58,0.00,FEW,,0.00,WeatherDisplay:10.37,2013-04-03 06:35:00,
2013-04-03 02:40:00,28.2,15.3,29.99,SW,225,4.6,4.6,58,0.00,FEW,,0.00,WeatherDisplay:10.37,2013-04-03 06:40:00,
2013-04-03 02:45:00,28.2,15.3,29.99,SW,225,5.8,5.8,58,0.00,FEW,,0.00,WeatherDisplay:10.37,2013-04-03 06:45:00,
2013-04-03 02:50:00,28.2,15.3,29.99,SW,225,4.6,4.6,58,0.00,FEW,,0.00,WeatherDisplay:10.37,2013-04-03 06:50:00,
2013-04-03 02:55:00,28.4,15.5,29.99,SW,225,5.8,5.8,58,0.00,FEW,,0.00,WeatherDisplay:10.37,2013-04-03 06:55:00,
2013-04-03 03:00:00,28.4,15.5,29.99,SW,225,5.8,5.8,58,0.00,FEW,,0.00,WeatherDisplay:10.37,2013-04-03 07:00:00,
2013-04-03 03:05:00,28.6,15.7,29.99,SW,225,6.9,6.9,58,0.00,CLR,,0.00,WeatherDisplay:10.37,2013-04-03 07:05:00,
2013-04-03 03:10:00,28.6,15.7,29.99,SW,225,6.9,6.9,58,0.00,CLR,,0.00,WeatherDisplay:10.37,2013-04-03 07:10:00,
2013-04-03 03:15:00,28.8,15.9,29.99,WSW,248,6.8,6.8,58,0.00,CLR,,0.00,WeatherDisplay:10.37,2013-04-03 07:15:00,
2013-04-03 03:20:00,28.8,15.9,29.99,SW,225,6.3,6.3,58,0.00,CLR,,0.00,WeatherDisplay:10.37,2013-04-03 07:20:00,
2013-04-03 03:25:00,28.8,15.9,29.99,WSW,248,5.8,5.8,58,0.00,CLR,,0.00,WeatherDisplay:10.37,2013-04-03 07:25:00,
2013-04-03 03:30:00,28.6,15.3,29.99,SW,225,6.9,6.9,57,0.00,CLR,,0.00,WeatherDisplay:10.37,2013-04-03 07:30:00,
2013-04-03 03:35:00,28.6,15.3,29.99,SW,225,6.9,6.9,57,0.00,CLR,,0.00,WeatherDisplay:10.37,2013-04-03 07:35:00,
2013-04-03 03:40:00,28.8,15.5,30.00,WSW,248,6.9,6.9,57,0.00,CLR,,0.00,WeatherDisplay:10.37,2013-04-03 07:40:00,
2013-04-03 03:45:00,28.6,15.3,30.00,SW,225,6.9,7.1,57,0.00,CLR,,0.00,WeatherDisplay:10.37,2013-04-03 07:45:00,
2013-04-03 03:50:00,28.6,15.3,30.00,WSW,248,5.8,6.2,57,0.00,CLR,,0.00,WeatherDisplay:10.37,2013-04-03 07:50:00,
2013-04-03 03:55:00,28.4,15.1,30.00,SW,225,6.9,6.9,57,0.00,CLR,,0.00,WeatherDisplay:10.37,2013-04-03 07:55:00,
2013-04-03 04:00:00,28.6,15.3,30.00,SW,225,7.3,7.3,57,0.00,CLR,,0.00,WeatherDisplay:10.37,2013-04-03 08:00:00,
2013-04-03 04:05:00,28.6,15.3,30.00,WSW,248,8.1,8.1,57,0.00,CLR,,0.00,WeatherDisplay:10.37,2013-04-03 08:05:00,
2013-04-03 04:10:00,28.6,15.3,30.00,WSW,248,8.1,8.1,57,0.00,CLR,,0.00,WeatherDisplay:10.37,2013-04-03 08:10:00,
2013-04-03 04:15:00,28.4,15.1,30.00,SW,225,6.9,6.9,57,0.00,CLR,,0.00,WeatherDisplay:10.37,2013-04-03 08:15:00,
2013-04-03 04:20:00,28.2,15.3,30.00,WSW,248,5.8,5.8,58,0.00,CLR,,0.00,WeatherDisplay:10.37,2013-04-03 08:20:00,
2013-04-03 04:25:00,28.2,15.3,30.00,SW,225,6.9,6.9,58,0.00,CLR,,0.00,WeatherDisplay:10.37,2013-04-03 08:25:00,
2013-04-03 04:30:00,28.0,15.1,30.01,SW,225,6.9,6.9,58,0.00,CLR,,0.00,WeatherDisplay:10.37,2013-04-03 08:30:00,
2013-04-03 04:35:00,28.0,15.1,30.01,SSW,202,7.3,7.3,58,0.00,CLR,,0.00,WeatherDisplay:10.37,2013-04-03 08:35:00,
2013-04-03 04:40:00,28.0,15.1,30.01,SW,225,5.8,5.8,58,0.00,CLR,,0.00,WeatherDisplay:10.37,2013-04-03 08:40:00,
2013-04-03 04:45:00,27.9,15.0,30.01,WSW,248,6.8,6.8,58,0.00,CLR,,0.00,WeatherDisplay:10.37,2013-04-03 08:45:00,
2013-04-03 04:50:00,27.7,15.2,30.01,SW,225,4.7,4.7,59,0.00,CLR,,0.00,WeatherDisplay:10.37,2013-04-03 08:50:00,
2013-04-03 04:55:00,27.7,15.2,30.01,SW,225,5.8,5.8,59,0.00,CLR,,0.00,WeatherDisplay:10.37,2013-04-03 08:55:00,
2013-04-03 05:00:00,27.5,15.4,30.01,SW,225,4.7,4.7,60,0.00,CLR,,0.00,WeatherDisplay:10.37,2013-04-03 09:00:00,
2013-04-03 05:05:00,27.3,15.2,30.01,SW,225,4.7,4.7,60,0.00,CLR,,0.00,WeatherDisplay:10.37,2013-04-03 09:05:00,
2013-04-03 05:10:00,27.3,15.6,30.01,SW,225,5.8,5.8,61,0.00,CLR,,0.00,WeatherDisplay:10.37,2013-04-03 09:10:00,
2013-04-03 05:15:00,27.1,15.4,30.02,SW,225,4.7,4.7,61,0.00,CLR,,0.00,WeatherDisplay:10.37,2013-04-03 09:15:00,
2013-04-03 05:20:00,27.1,15.4,30.02,SW,225,4.7,4.7,61,0.00,CLR,,0.00,WeatherDisplay:10.37,2013-04-03 09:20:00,
2013-04-03 05:25:00,26.8,15.5,30.02,SW,225,4.7,4.7,62,0.00,CLR,,0.00,WeatherDisplay:10.37,2013-04-03 09:25:00,
2013-04-03 05:30:00,26.8,15.5,30.02,WSW,248,4.7,4.7,62,0.00,CLR,,0.00,WeatherDisplay:10.37,2013-04-03 09:30:00,
2013-04-03 05:35:00,26.4,15.1,30.02,SW,225,4.6,4.6,62,0.00,CLR,,0.00,WeatherDisplay:10.37,2013-04-03 09:35:00,
2013-04-03 05:40:00,26.2,15.3,30.03,SW,225,4.6,4.6,63,0.00,CLR,,0.00,WeatherDisplay:10.37,2013-04-03 09:40:00,
2013-04-03 05:45:00,25.9,15.4,30.03,SW,225,3.7,3.7,64,0.00,CLR,,0.00,WeatherDisplay:10.37,2013-04-03 09:45:00,
2013-04-03 05:50:00,25.5,15.0,30.03,SW,225,4.6,4.6,64,0.00,CLR,,0.00,WeatherDisplay:10.37,2013-04-03 09:50:00,
2013-04-03 05:55:00,25.2,15.4,30.03,SW,225,4.6,4.6,66,0.00,CLR,,0.00,WeatherDisplay:10.37,2013-04-03 09:55:00,
2013-04-03 06:00:00,25.3,15.5,30.03,SW,225,4.6,4.6,66,0.00,CLR,,0.00,WeatherDisplay:10.37,2013-04-03 10:00:00,
2013-04-03 06:05:00,25.5,15.4,30.03,SW,225,4.7,4.7,65,0.00,CLR,,0.00,WeatherDisplay:10.37,2013-04-03 10:05:00,
2013-04-03 06:10:00,25.9,15.7,30.03,SW,225,4.6,4.6,65,0.00,CLR,,0.00,WeatherDisplay:10.37,2013-04-03 10:10:00,
2013-04-03 06:15:00,26.1,15.9,30.04,SW,225,4.7,4.7,65,0.00,CLR,,0.00,WeatherDisplay:10.37,2013-04-03 10:15:00,
2013-04-03 06:20:00,26.1,15.6,30.04,SW,225,4.6,4.6,64,0.00,CLR,,0.00,WeatherDisplay:10.37,2013-04-03 10:20:00,
2013-04-03 06:25:00,26.1,15.6,30.04,SW,225,4.6,4.6,64,0.00,CLR,,0.00,WeatherDisplay:10.37,2013-04-03 10:25:00,
2013-04-03 06:30:00,26.1,15.6,30.04,SW,225,4.6,4.6,64,0.00,CLR,,0.00,WeatherDisplay:10.37,2013-04-03 10:30:00,
2013-04-03 06:35:00,25.9,15.4,30.04,SW,225,4.7,4.7,64,0.00,CLR,,0.00,WeatherDisplay:10.37,2013-04-03 10:35:00,
2013-04-03 06:40:00,25.9,15.7,30.05,SW,225,4.6,4.6,65,0.00,CLR,,0.00,WeatherDisplay:10.37,2013-04-03 10:40:00,
2013-04-03 06:45:00,25.9,15.7,30.05,SW,225,4.6,4.6,65,0.00,CLR,,0.00,WeatherDisplay:10.37,2013-04-03 10:45:00,
2013-04-03 06:50:00,25.7,15.6,30.05,SW,225,4.6,4.6,65,0.00,CLR,,0.00,WeatherDisplay:10.37,2013-04-03 10:50:00,
2013-04-03 06:55:00,25.3,15.5,30.05,SW,225,3.5,3.5,66,0.00,CLR,,0.00,WeatherDisplay:10.37,2013-04-03 10:55:00,
2013-04-03 07:00:00,25.3,15.5,30.05,SW,225,4.6,4.6,66,0.00,CLR,,0.00,WeatherDisplay:10.37,2013-04-03 11:00:00,
2013-04-03 07:05:00,25.2,15.4,30.06,SW,225,3.5,3.5,66,0.00,CLR,,0.00,WeatherDisplay:10.37,2013-04-03 11:05:00,
2013-04-03 07:10:00,25.2,15.8,30.06,SW,225,3.5,3.5,67,0.00,CLR,,0.00,WeatherDisplay:10.37,2013-04-03 11:10:00,
2013-04-03 07:15:00,25.3,15.9,30.07,WSW,248,4.2,4.2,67,0.00,CLR,,0.00,WeatherDisplay:10.37,2013-04-03 11:15:00,
2013-04-03 07:20:00,25.7,16.3,30.07,WSW,248,3.5,3.5,67,0.00,CLR,,0.00,WeatherDisplay:10.37,2013-04-03 11:20:00,
2013-04-03 07:25:00,26.1,16.3,30.07,WSW,248,2.7,2.7,66,0.00,CLR,,0.00,WeatherDisplay:10.37,2013-04-03 11:25:00,
2013-04-03 07:30:00,26.6,16.8,30.07,WSW,248,3.5,3.5,66,0.00,CLR,,0.00,WeatherDisplay:10.37,2013-04-03 11:30:00,
2013-04-03 07:35:00,27.3,17.1,30.07,WSW,248,4.6,4.6,65,0.00,CLR,,0.00,WeatherDisplay:10.37,2013-04-03 11:35:00,
2013-04-03 07:40:00,27.7,17.1,30.07,West,270,5.8,5.8,64,0.00,CLR,,0.00,WeatherDisplay:10.37,2013-04-03 11:40:00,
2013-04-03 07:45:00,28.4,17.4,30.07,West,270,5.8,5.8,63,0.00,CLR,,0.00,WeatherDisplay:10.37,2013-04-03 11:45:00,
2013-04-03 07:50:00,28.8,17.8,30.07,WNW,292,5.8,5.8,63,0.00,CLR,,0.00,WeatherDisplay:10.37,2013-04-03 11:50:00,
2013-04-03 07:55:00,29.1,17.7,30.07,West,270,5.8,5.8,62,0.00,CLR,,0.00,WeatherDisplay:10.37,2013-04-03 11:55:00,
2013-04-03 08:00:00,29.5,18.1,30.07,WSW,248,5.8,5.8,62,0.00,CLR,,0.00,WeatherDisplay:10.37,2013-04-03 12:00:00,
2013-04-03 08:05:00,29.8,18.0,30.08,West,270,8.8,8.8,61,0.00,CLR,,0.00,WeatherDisplay:10.37,2013-04-03 12:05:00,
2013-04-03 08:10:00,30.0,18.2,30.08,SW,225,7.3,7.3,61,0.00,CLR,,0.00,WeatherDisplay:10.37,2013-04-03 12:10:00,
2013-04-03 08:15:00,29.8,18.0,30.09,West,270,9.2,9.2,61,0.00,CLR,,0.00,WeatherDisplay:10.37,2013-04-03 12:15:00,
2013-04-03 08:20:00,30.2,18.4,30.09,WSW,248,9.2,9.2,61,0.00,CLR,,0.00,WeatherDisplay:10.37,2013-04-03 12:20:00,
2013-04-03 08:25:00,30.2,18.4,30.08,West,270,8.1,8.3,61,0.00,CLR,,0.00,WeatherDisplay:10.37,2013-04-03 12:25:00,
2013-04-03 08:30:00,30.7,18.4,30.08,NW,315,5.8,5.8,60,0.00,CLR,,0.00,WeatherDisplay:10.37,2013-04-03 12:30:00,
2013-04-03 08:35:00,30.6,18.0,30.08,West,270,11.5,11.5,59,0.00,CLR,,0.00,WeatherDisplay:10.37,2013-04-03 12:35:00,
2013-04-03 08:40:00,30.4,17.8,30.09,WNW,292,10.4,10.4,59,0.00,CLR,,0.00,WeatherDisplay:10.37,2013-04-03 12:40:00,
2013-04-03 08:45:00,30.2,17.6,30.09,WNW,292,11.5,11.5,59,0.00,CLR,,0.00,WeatherDisplay:10.37,2013-04-03 12:45:00,
2013-04-03 08:50:00,30.2,16.8,30.09,West,270,12.7,12.7,57,0.00,CLR,,0.00,WeatherDisplay:10.37,2013-04-03 12:50:00,
2013-04-03 08:55:00,30.6,16.7,30.09,West,270,10.4,10.4,56,0.00,CLR,,0.00,WeatherDisplay:10.37,2013-04-03 12:55:00,
2013-04-03 09:00:00,30.6,15.5,30.09,NW,315,11.5,11.5,53,0.00,CLR,,0.00,WeatherDisplay:10.37,2013-04-03 13:00:00,
2013-04-03 09:05:00,30.7,15.6,30.08,West,270,10.4,10.4,53,0.00,CLR,,0.00,WeatherDisplay:10.37,2013-04-03 13:05:00,
2013-04-03 09:10:00,30.9,14.9,30.08,West,270,11.5,11.5,51,0.00,CLR,,0.00,WeatherDisplay:10.37,2013-04-03 13:10:00,
2013-04-03 09:15:00,30.9,14.9,30.09,West,270,9.4,9.4,51,0.00,CLR,,0.00,WeatherDisplay:10.37,2013-04-03 13:15:00,
2013-04-03 09:20:00,30.4,13.5,30.09,WNW,292,11.5,11.5,49,0.00,CLR,,0.00,WeatherDisplay:10.37,2013-04-03 13:20:00,
2013-04-03 09:25:00,30.9,14.4,30.09,West,270,9.2,9.2,50,0.00,CLR,,0.00,WeatherDisplay:10.37,2013-04-03 13:25:00,
2013-04-03 09:30:00,30.9,13.5,30.10,NNW,338,11.5,11.5,48,0.00,CLR,,0.00,WeatherDisplay:10.37,2013-04-03 13:30:00,
2013-04-03 09:35:00,31.3,13.9,30.10,West,270,9.2,9.2,48,0.00,CLR,,0.00,WeatherDisplay:10.37,2013-04-03 13:35:00,
2013-04-03 09:40:00,30.6,13.2,30.10,NNW,338,10.4,10.4,48,0.00,CLR,,0.00,WeatherDisplay:10.37,2013-04-03 13:40:00,
2013-04-03 09:45:00,31.5,14.0,30.10,West,270,8.1,8.1,48,0.00,CLR,,0.00,WeatherDisplay:10.37,2013-04-03 13:45:00,
2013-04-03 09:50:00,31.3,12.4,30.10,West,270,12.7,12.7,45,0.00,CLR,,0.00,WeatherDisplay:10.37,2013-04-03 13:50:00,
2013-04-03 09:55:00,31.5,13.1,30.10,West,270,10.4,10.4,46,0.00,CLR,,0.00,WeatherDisplay:10.37,2013-04-03 13:55:00,
2013-04-03 10:00:00,31.8,13.3,30.10,West,270,11.5,11.5,46,0.00,CLR,,0.00,WeatherDisplay:10.37,2013-04-03 14:00:00,
2013-04-03 10:05:00,31.6,12.7,30.10,West,270,11.5,11.5,45,0.00,CLR,,0.00,WeatherDisplay:10.37,2013-04-03 14:05:00,
2013-04-03 10:10:00,31.8,12.3,30.10,NE,45,9.2,9.2,44,0.00,CLR,,0.00,WeatherDisplay:10.37,2013-04-03 14:10:00,
2013-04-03 10:15:00,32.9,13.9,30.11,NNW,338,9.2,9.2,45,0.00,CLR,,0.00,WeatherDisplay:10.37,2013-04-03 14:15:00,
2013-04-03 10:20:00,32.5,14.0,30.11,West,270,10.9,10.9,46,0.00,CLR,,0.00,WeatherDisplay:10.37,2013-04-03 14:20:00,
2013-04-03 10:25:00,32.4,11.8,30.12,WNW,292,10.4,10.4,42,0.00,CLR,,0.00,WeatherDisplay:10.37,2013-04-03 14:25:00,
2013-04-03 10:30:00,32.5,9.7,30.12,WNW,292,13.8,13.8,38,0.00,CLR,,0.00,WeatherDisplay:10.37,2013-04-03 14:30:00,
2013-04-03 10:35:00,32.9,10.6,30.12,West,270,11.5,11.5,39,0.00,CLR,,0.00,WeatherDisplay:10.37,2013-04-03 14:35:00,
2013-04-03 10:40:00,33.3,11.0,30.12,West,270,10.4,10.4,39,0.00,CLR,,0.00,WeatherDisplay:10.37,2013-04-03 14:40:00,
2013-04-03 10:45:00,33.4,11.6,30.12,WSW,248,11.5,11.5,40,0.00,CLR,,0.00,WeatherDisplay:10.37,2013-04-03 14:45:00,
2013-04-03 10:50:00,33.8,12.6,30.13,SW,225,10.4,10.4,41,0.00,CLR,,0.00,WeatherDisplay:10.37,2013-04-03 14:50:00,
2013-04-03 10:55:00,34.2,12.4,30.13,WSW,248,8.1,8.1,40,0.00,CLR,,0.00,WeatherDisplay:10.37,2013-04-03 14:55:00,
2013-04-03 11:00:00,34.2,11.8,30.13,WSW,248,11.5,11.5,39,0.00,CLR,,0.00,WeatherDisplay:10.37,2013-04-03 15:00:00,
2013-04-03 11:05:00,34.3,11.9,30.13,West,270,12.7,12.7,39,0.00,FEW,,0.00,WeatherDisplay:10.37,2013-04-03 15:05:00,
2013-04-03 11:10:00,34.3,11.3,30.13,SW,225,11.9,11.9,38,0.00,FEW,,0.00,WeatherDisplay:10.37,2013-04-03 15:10:00,
2013-04-03 11:15:00,35.1,11.4,30.13,SW,225,14.0,14.0,37,0.00,FEW,,0.00,WeatherDisplay:10.37,2013-04-03 15:15:00,
2013-04-03 11:20:00,34.5,10.2,30.13,SW,225,16.1,16.1,36,0.00,FEW,,0.00,WeatherDisplay:10.37,2013-04-03 15:20:00,
2013-04-03 11:25:00,34.3,10.7,30.13,WSW,248,13.8,13.8,37,0.00,FEW,,0.00,WeatherDisplay:10.37,2013-04-03 15:25:00,
2013-04-03 11:30:00,34.7,11.0,30.13,WSW,248,16.1,16.1,37,0.00,FEW,,0.00,WeatherDisplay:10.37,2013-04-03 15:30:00,
2013-04-03 11:35:00,34.7,10.4,30.13,SW,225,12.7,12.7,36,0.00,FEW,,0.00,WeatherDisplay:10.37,2013-04-03 15:35:00,
2013-04-03 11:40:00,35.1,10.2,30.13,WNW,292,12.4,12.4,35,0.00,FEW,,0.00,WeatherDisplay:10.37,2013-04-03 15:40:00,
2013-04-03 11:45:00,35.1,9.5,30.13,NW,315,19.6,19.6,34,0.00,FEW,,0.00,WeatherDisplay:10.37,2013-04-03 15:45:00,
2013-04-03 11:50:00,35.1,8.8,30.13,SW,225,10.4,10.4,33,0.00,FEW,,0.00,WeatherDisplay:10.37,2013-04-03 15:50:00,
2013-04-03 11:55:00,35.2,8.9,30.13,WNW,292,17.3,17.3,33,0.00,FEW,,0.00,WeatherDisplay:10.37,2013-04-03 15:55:00,
2013-04-03 12:00:00,35.6,9.9,30.13,SW,225,17.6,17.6,34,0.00,FEW,,0.00,WeatherDisplay:10.37,2013-04-03 16:00:00,
2013-04-03 12:05:00,35.6,10.6,30.13,SW,225,13.8,13.8,35,0.00,FEW,,0.00,WeatherDisplay:10.37,2013-04-03 16:05:00,
2013-04-03 12:10:00,36.5,11.4,30.13,SW,225,11.9,11.9,35,0.00,FEW,,0.00,WeatherDisplay:10.37,2013-04-03 16:10:00,
2013-04-03 12:15:00,35.8,11.4,30.14,NW,315,13.8,13.8,36,0.00,FEW,,0.00,WeatherDisplay:10.37,2013-04-03 16:15:00,
2013-04-03 12:20:00,36.1,12.3,30.14,West,270,11.4,11.4,37,0.00,FEW,,0.00,WeatherDisplay:10.37,2013-04-03 16:20:00,
2013-04-03 12:25:00,37.0,11.8,30.13,WNW,292,11.5,11.5,35,0.00,FEW,,0.00,WeatherDisplay:10.37,2013-04-03 16:25:00,
2013-04-03 12:30:00,36.5,11.4,30.13,West,270,13.8,13.8,35,0.00,FEW,,0.00,WeatherDisplay:10.37,2013-04-03 16:30:00,
2013-04-03 12:35:00,35.6,11.2,30.13,West,270,16.1,16.1,36,0.00,FEW,,0.00,WeatherDisplay:10.37,2013-04-03 16:35:00,
2013-04-03 12:40:00,36.7,12.8,30.13,WSW,248,15.0,15.0,37,0.00,FEW,,0.00,WeatherDisplay:10.37,2013-04-03 16:40:00,
2013-04-03 12:45:00,37.0,13.1,30.13,West,270,9.2,9.2,37,0.00,FEW,,0.00,WeatherDisplay:10.37,2013-04-03 16:45:00,
2013-04-03 12:51:00,37.0,13.1,30.12,WSW,248,15.0,15.0,37,0.00,FEW,,0.00,WeatherDisplay:10.37,2013-04-03 16:51:00,
2013-04-03 12:56:00,36.5,12.7,30.12,West,270,16.1,16.1,37,0.00,FEW,,0.00,WeatherDisplay:10.37,2013-04-03 16:56:00,
2013-04-03 13:01:00,37.4,12.8,30.12,WSW,248,16.6,16.6,36,0.00,BKN,,0.00,WeatherDisplay:10.37,2013-04-03 17:01:00,
2013-04-03 13:06:00,36.9,13.0,30.12,West,270,16.1,16.1,37,0.00,BKN,,0.00,WeatherDisplay:10.37,2013-04-03 17:06:00,
2013-04-03 13:11:00,37.6,13.6,30.12,West,270,16.1,16.1,37,0.00,BKN,,0.00,WeatherDisplay:10.37,2013-04-03 17:11:00,
2013-04-03 13:16:00,37.6,13.0,30.11,SW,225,15.0,15.0,36,0.00,BKN,,0.00,WeatherDisplay:10.37,2013-04-03 17:16:00,
2013-04-03 13:21:00,37.8,13.2,30.11,SW,225,18.4,18.4,36,0.00,BKN,,0.00,WeatherDisplay:10.37,2013-04-03 17:21:00,
2013-04-03 13:26:00,36.5,12.0,30.11,WSW,248,20.7,20.7,36,0.00,BKN,,0.00,WeatherDisplay:10.37,2013-04-03 17:26:00,
2013-04-03 13:31:00,37.6,13.0,30.11,WSW,248,25.3,25.3,36,0.00,BKN,,0.00,WeatherDisplay:10.37,2013-04-03 17:31:00,
2013-04-03 13:36:00,36.9,11.8,30.11,WSW,248,27.9,27.9,35,0.00,BKN,,0.00,WeatherDisplay:10.37,2013-04-03 17:36:00,
2013-04-03 13:41:00,37.2,12.0,30.11,West,270,20.7,20.7,35,0.00,BKN,,0.00,WeatherDisplay:10.37,2013-04-03 17:41:00,
2013-04-03 13:46:00,36.7,12.2,30.11,WSW,248,10.4,10.4,36,0.00,BKN,,0.00,WeatherDisplay:10.37,2013-04-03 17:46:00,
2013-04-03 13:51:00,38.1,13.5,30.12,SW,225,16.1,16.1,36,0.00,BKN,,0.00,WeatherDisplay:10.37,2013-04-03 17:51:00,
2013-04-03 13:56:00,37.8,12.6,30.12,SW,225,19.6,19.6,35,0.00,BKN,,0.00,WeatherDisplay:10.37,2013-04-03 17:56:00,
2013-04-03 14:01:00,38.1,12.8,30.12,West,270,18.4,18.4,35,0.00,BKN,,0.00,WeatherDisplay:10.37,2013-04-03 18:01:00,
2013-04-03 14:06:00,37.6,12.4,30.12,West,270,13.8,13.8,35,0.00,BKN,,0.00,WeatherDisplay:10.37,2013-04-03 18:06:00,
2013-04-03 14:11:00,38.1,12.8,30.12,SW,225,20.7,20.7,35,0.00,BKN,,0.00,WeatherDisplay:10.37,2013-04-03 18:11:00,
2013-04-03 14:16:00,38.3,13.0,30.11,West,270,15.0,15.0,35,0.00,BKN,,0.00,WeatherDisplay:10.37,2013-04-03 18:16:00,
2013-04-03 14:21:00,37.9,12.6,30.11,WSW,248,19.6,19.6,35,0.00,BKN,,0.00,WeatherDisplay:10.37,2013-04-03 18:21:00,
2013-04-03 14:27:00,39.0,14.3,30.12,West,270,21.9,21.9,36,0.00,BKN,,0.00,WeatherDisplay:10.37,2013-04-03 18:27:00,
2013-04-03 14:32:00,37.8,13.2,30.12,West,270,23.0,23.0,36,0.00,BKN,,0.00,WeatherDisplay:10.37,2013-04-03 18:32:00,
2013-04-03 14:37:00,37.9,13.9,30.12,WSW,248,20.7,20.7,37,0.00,BKN,,0.00,WeatherDisplay:10.37,2013-04-03 18:37:00,
2013-04-03 14:42:00,37.8,13.8,30.12,West,270,17.3,17.3,37,0.00,BKN,,0.00,WeatherDisplay:10.37,2013-04-03 18:42:00,
2013-04-03 14:47:00,37.2,13.9,30.12,West,270,23.8,23.8,38,0.00,BKN,,0.00,WeatherDisplay:10.37,2013-04-03 18:47:00,
2013-04-03 14:52:00,37.2,15.1,30.12,West,270,24.2,24.2,40,0.00,BKN,,0.00,WeatherDisplay:10.37,2013-04-03 18:52:00,
2013-04-03 14:57:00,37.2,15.6,30.12,WNW,292,16.1,16.1,41,0.00,BKN,,0.00,WeatherDisplay:10.37,2013-04-03 18:57:00,
2013-04-03 15:02:00,36.9,15.9,30.13,West,270,22.7,22.7,42,0.00,OVC,,0.00,WeatherDisplay:10.37,2013-04-03 19:02:00,
2013-04-03 15:07:00,36.5,16.6,30.13,WNW,292,16.1,16.1,44,0.00,OVC,,0.00,WeatherDisplay:10.37,2013-04-03 19:07:00,
2013-04-03 15:12:00,37.8,16.7,30.13,WSW,248,17.6,17.6,42,0.00,OVC,,0.00,WeatherDisplay:10.37,2013-04-03 19:12:00,
2013-04-03 15:17:00,38.7,17.5,30.13,West,270,18.6,18.6,42,0.00,OVC,,0.00,WeatherDisplay:10.37,2013-04-03 19:17:00,
2013-04-03 15:22:00,37.6,17.6,30.13,WSW,248,17.3,17.3,44,0.00,OVC,,0.00,WeatherDisplay:10.37,2013-04-03 19:22:00,
2013-04-03 15:27:00,36.1,18.8,30.13,WNW,292,23.0,23.0,49,0.00,OVC,,0.00,WeatherDisplay:10.37,2013-04-03 19:27:00,
2013-04-03 15:32:00,36.3,20.3,30.13,WNW,292,18.4,18.4,52,0.00,OVC,,0.00,WeatherDisplay:10.37,2013-04-03 19:32:00,
2013-04-03 15:37:00,35.8,21.2,30.14,North,360,17.3,17.3,55,0.00,OVC,,0.00,WeatherDisplay:10.37,2013-04-03 19:37:00,
2013-04-03 15:43:00,35.4,20.8,30.14,North,360,12.7,12.7,55,0.00,OVC,,0.00,WeatherDisplay:10.37,2013-04-03 19:43:00,
2013-04-03 15:48:00,36.7,21.6,30.14,West,270,11.9,11.9,54,0.00,OVC,,0.00,WeatherDisplay:10.37,2013-04-03 19:48:00,
2013-04-03 15:53:00,37.6,22.4,30.14,WNW,292,13.8,13.8,54,0.00,OVC,,0.00,WeatherDisplay:10.37,2013-04-03 19:53:00,
2013-04-03 15:58:00,38.3,21.7,30.14,West,270,17.3,17.3,51,0.00,OVC,,0.00,WeatherDisplay:10.37,2013-04-03 19:58:00,
2013-04-03 16:03:00,36.7,20.3,30.13,WNW,292,18.4,18.4,51,0.00,BKN,,0.00,WeatherDisplay:10.37,2013-04-03 20:03:00,
2013-04-03 16:08:00,36.7,20.7,30.13,West,270,11.9,11.9,52,0.00,BKN,,0.00,WeatherDisplay:10.37,2013-04-03 20:08:00,
2013-04-03 16:13:00,37.4,19.0,30.13,WSW,248,24.2,24.2,47,0.00,BKN,,0.00,WeatherDisplay:10.37,2013-04-03 20:13:00,
2013-04-03 16:18:00,37.2,17.8,30.13,West,270,26.5,26.5,45,0.00,BKN,,0.00,WeatherDisplay:10.37,2013-04-03 20:18:00,
2013-04-03 16:23:00,37.4,18.5,30.13,WSW,248,27.6,27.6,46,0.00,BKN,,0.00,WeatherDisplay:10.37,2013-04-03 20:23:00,
2013-04-03 16:28:00,37.6,19.2,30.14,SW,225,20.7,20.7,47,0.00,BKN,,0.00,WeatherDisplay:10.37,2013-04-03 20:28:00,
2013-04-03 16:33:00,37.2,18.8,30.14,SW,225,23.0,23.0,47,0.00,BKN,,0.00,WeatherDisplay:10.37,2013-04-03 20:33:00,
2013-04-03 16:38:00,37.6,18.7,30.14,West,270,20.7,20.7,46,0.00,BKN,,0.00,WeatherDisplay:10.37,2013-04-03 20:38:00,
2013-04-03 16:43:00,35.8,18.5,30.14,SSW,202,15.0,15.0,49,0.00,BKN,,0.00,WeatherDisplay:10.37,2013-04-03 20:43:00,
2013-04-03 16:48:00,35.8,17.0,30.14,WNW,292,19.6,19.6,46,0.00,BKN,,0.00,WeatherDisplay:10.37,2013-04-03 20:48:00,
2013-04-03 16:54:00,36.3,16.4,30.15,ESE,112,6.9,6.9,44,0.00,BKN,,0.00,WeatherDisplay:10.37,2013-04-03 20:54:00,
2013-04-03 16:59:00,36.7,14.6,30.15,West,270,9.4,9.4,40,0.00,BKN,,0.00,WeatherDisplay:10.37,2013-04-03 20:59:00,
2013-04-03 17:04:00,37.2,14.5,30.15,SW,225,16.1,16.1,39,0.00,SCT,,0.00,WeatherDisplay:10.37,2013-04-03 21:04:00,
2013-04-03 17:09:00,37.2,13.3,30.15,WNW,292,21.9,21.9,37,0.00,SCT,,0.00,WeatherDisplay:10.37,2013-04-03 21:09:00,
2013-04-03 17:14:00,37.2,13.3,30.17,WNW,286,15.0,15.0,37,0.00,SCT,,0.00,WeatherDisplay:10.37,2013-04-03 21:14:00,
2013-04-03 17:19:00,38.1,12.8,30.17,WNW,289,14.0,19.0,35,0.00,SCT,,0.00,WeatherDisplay:10.37,2013-04-03 21:19:00,
2013-04-03 17:24:00,37.8,12.6,30.17,WNW,291,10.0,19.0,35,0.00,SCT,,0.00,WeatherDisplay:10.37,2013-04-03 21:24:00,
2013-04-03 18:07:00,37.6,11.7,30.19,West,270,12.7,12.7,34,0.00,SCT,,0.00,WeatherDisplay:10.37,2013-04-03 22:07:00,
2013-04-03 18:12:00,37.4,10.9,30.19,NE,45,9.2,9.2,33,0.00,SCT,,0.00,WeatherDisplay:10.37,2013-04-03 22:12:00,
2013-04-03 18:17:00,36.7,10.3,30.18,WNW,292,15.0,15.0,33,0.00,SCT,,0.00,WeatherDisplay:10.37,2013-04-03 22:17:00,
2013-04-03 18:22:00,36.1,10.4,30.18,WNW,292,13.5,13.5,34,0.00,SCT,,0.00,WeatherDisplay:10.37,2013-04-03 22:22:00,
2013-04-03 18:27:00,36.0,9.6,30.19,NNW,338,12.7,12.7,33,0.00,SCT,,0.00,WeatherDisplay:10.37,2013-04-03 22:27:00,
2013-04-03 18:32:00,36.3,9.9,30.19,West,270,11.9,11.9,33,0.00,CLR,,0.00,WeatherDisplay:10.37,2013-04-03 22:32:00,
2013-04-03 18:37:00,36.5,10.1,30.19,NNE,22,10.4,10.4,33,0.00,CLR,,0.00,WeatherDisplay:10.37,2013-04-03 22:37:00,
2013-04-03 18:42:00,36.5,10.1,30.19,WNW,292,9.2,9.2,33,0.00,CLR,,0.00,WeatherDisplay:10.37,2013-04-03 22:42:00,
2013-04-03 18:47:00,36.1,9.7,30.19,SSW,202,8.1,8.1,33,0.00,CLR,,0.00,WeatherDisplay:10.37,2013-04-03 22:47:00,
2013-04-03 18:52:00,36.0,9.6,30.20,NNW,338,10.4,10.4,33,0.00,CLR,,0.00,WeatherDisplay:10.37,2013-04-03 22:52:00,
2013-04-03 18:57:00,36.1,9.7,30.20,NNW,338,12.7,12.7,33,0.00,CLR,,0.00,WeatherDisplay:10.37,2013-04-03 22:57:00,
2013-04-03 19:02:00,35.6,9.9,30.20,WNW,292,13.8,13.8,34,0.00,CLR,,0.00,WeatherDisplay:10.37,2013-04-03 23:02:00,
2013-04-03 19:07:00,35.6,9.9,30.20,WNW,292,8.8,8.8,34,0.00,CLR,,0.00,WeatherDisplay:10.37,2013-04-03 23:07:00,
2013-04-03 19:12:00,35.6,9.9,30.20,WNW,292,8.8,8.8,34,0.00,CLR,,0.00,WeatherDisplay:10.37,2013-04-03 23:12:00,
2013-04-03 19:17:00,34.9,10.0,30.20,ESE,112,5.8,5.8,35,0.00,CLR,,0.00,WeatherDisplay:10.37,2013-04-03 23:17:00,
2013-04-03 19:22:00,34.7,10.4,30.20,NW,315,10.4,10.4,36,0.00,CLR,,0.00,WeatherDisplay:10.37,2013-04-03 23:22:00,
2013-04-03 19:27:00,34.2,10.0,30.20,NNE,22,5.8,5.8,36,0.00,CLR,,0.00,WeatherDisplay:10.37,2013-04-03 23:27:00,
2013-04-03 19:32:00,34.0,10.4,30.20,NW,315,6.9,6.9,37,0.00,CLR,,0.00,WeatherDisplay:10.37,2013-04-03 23:32:00,
2013-04-03 19:37:00,34.0,10.4,30.20,WNW,292,8.3,8.3,37,0.00,CLR,,0.00,WeatherDisplay:10.37,2013-04-03 23:37:00,
2013-04-03 19:42:00,33.4,10.5,30.20,NNE,22,6.9,6.9,38,0.00,CLR,,0.00,WeatherDisplay:10.37,2013-04-03 23:42:00,
2013-04-03 19:47:00,33.3,10.4,30.20,NNE,22,9.2,9.2,38,0.00,CLR,,0.00,WeatherDisplay:10.37,2013-04-03 23:47:00,
2013-04-03 19:52:00,32.9,10.0,30.20,NNW,338,6.3,6.3,38,0.00,CLR,,0.00,WeatherDisplay:10.37,2013-04-03 23:52:00,
2013-04-03 19:58:00,32.7,9.8,30.20,NE,45,9.2,9.2,38,0.00,CLR,,0.00,WeatherDisplay:10.37,2013-04-03 23:58:00,
2013-04-03 20:03:00,32.5,10.3,30.20,West,270,4.6,4.6,39,0.00,CLR,,0.00,WeatherDisplay:10.37,2013-04-04 00:03:00,
2013-04-03 20:08:00,32.2,10.0,30.20,NW,315,5.8,5.8,39,0.00,CLR,,0.00,WeatherDisplay:10.37,2013-04-04 00:08:00,
2013-04-03 20:13:00,32.2,10.5,30.20,ESE,112,5.8,5.8,40,0.00,CLR,,0.00,WeatherDisplay:10.37,2013-04-04 00:13:00,
2013-04-03 20:18:00,32.2,10.5,30.20,NE,45,6.9,6.9,40,0.00,CLR,,0.00,WeatherDisplay:10.37,2013-04-04 00:18:00,
2013-04-03 20:23:00,32.2,10.5,30.20,ESE,112,5.8,5.8,40,0.00,CLR,,0.00,WeatherDisplay:10.37,2013-04-04 00:23:00,
2013-04-03 20:28:00,32.0,10.4,30.20,ENE,68,4.6,4.6,40,0.00,CLR,,0.00,WeatherDisplay:10.37,2013-04-04 00:28:00,
2013-04-03 20:33:00,31.8,10.2,30.20,NW,315,4.6,4.6,40,0.00,CLR,,0.00,WeatherDisplay:10.37,2013-04-04 00:33:00,
2013-04-03 20:38:00,31.6,10.6,30.20,East,90,3.5,3.5,41,0.00,CLR,,0.00,WeatherDisplay:10.37,2013-04-04 00:38:00,
2013-04-03 20:43:00,31.5,10.5,30.20,East,90,5.8,5.8,41,0.00,CLR,,0.00,WeatherDisplay:10.37,2013-04-04 00:43:00,
2013-04-03 20:48:00,31.6,10.6,30.20,NNE,22,5.8,5.8,41,0.00,CLR,,0.00,WeatherDisplay:10.37,2013-04-04 00:48:00,
2013-04-03 20:53:00,31.3,10.8,30.20,NNW,338,4.6,4.6,42,0.00,CLR,,0.00,WeatherDisplay:10.37,2013-04-04 00:53:00,
2013-04-03 20:58:00,31.1,10.6,30.20,NW,315,3.7,3.7,42,0.00,CLR,,0.00,WeatherDisplay:10.37,2013-04-04 00:58:00,
2013-04-03 21:03:00,30.9,10.5,30.21,NE,45,5.8,5.8,42,0.00,CLR,,0.00,WeatherDisplay:10.37,2013-04-04 01:03:00,
2013-04-03 21:08:00,31.1,10.6,30.21,NE,45,4.6,4.6,42,0.00,CLR,,0.00,WeatherDisplay:10.37,2013-04-04 01:08:00,
2013-04-03 21:13:00,31.1,10.6,30.21,East,90,4.6,4.6,42,0.00,CLR,,0.00,WeatherDisplay:10.37,2013-04-04 01:13:00,
2013-04-03 21:18:00,30.9,11.0,30.21,NW,315,4.6,4.6,43,0.00,CLR,,0.00,WeatherDisplay:10.37,2013-04-04 01:18:00,
2013-04-03 21:23:00,30.9,11.0,30.21,NW,315,3.7,3.7,43,0.00,CLR,,0.00,WeatherDisplay:10.37,2013-04-04 01:23:00,
2013-04-03 21:28:00,30.6,11.2,30.21,East,90,5.8,5.8,44,0.00,CLR,,0.00,WeatherDisplay:10.37,2013-04-04 01:28:00,
2013-04-03 21:33:00,30.6,11.2,30.21,ENE,68,4.6,4.6,44,0.00,CLR,,0.00,WeatherDisplay:10.37,2013-04-04 01:33:00,
2013-04-03 21:38:00,30.4,11.1,30.20,East,90,4.6,4.6,44,0.00,CLR,,0.00,WeatherDisplay:10.37,2013-04-04 01:38:00,
2013-04-03 21:43:00,30.0,11.2,30.20,East,90,3.5,3.5,45,0.00,CLR,,0.00,WeatherDisplay:10.37,2013-04-04 01:43:00,
2013-04-03 21:48:00,30.0,11.2,30.20,East,90,3.7,3.7,45,0.00,CLR,,0.00,WeatherDisplay:10.37,2013-04-04 01:48:00,
2013-04-03 21:53:00,29.8,11.0,30.19,ESE,112,3.5,3.5,45,0.00,CLR,,0.00,WeatherDisplay:10.37,2013-04-04 01:53:00,
2013-04-03 21:58:00,29.7,11.4,30.19,ESE,112,3.5,3.6,46,0.00,CLR,,0.00,WeatherDisplay:10.37,2013-04-04 01:58:00,
2013-04-03 22:03:00,29.7,11.4,30.19,ESE,112,3.7,3.7,46,0.00,CLR,,0.00,WeatherDisplay:10.37,2013-04-04 02:03:00,
2013-04-03 22:08:00,29.5,11.7,30.19,East,90,4.7,4.7,47,0.00,CLR,,0.00,WeatherDisplay:10.37,2013-04-04 02:08:00,
2013-04-03 22:13:00,29.3,11.5,30.19,East,90,4.6,4.6,47,0.00,CLR,,0.00,WeatherDisplay:10.37,2013-04-04 02:13:00,
2013-04-03 22:18:00,29.1,11.4,30.18,ESE,112,5.8,5.8,47,0.00,CLR,,0.00,WeatherDisplay:10.37,2013-04-04 02:18:00,
2013-04-03 22:23:00,28.9,11.2,30.18,ESE,112,3.5,3.5,47,0.00,CLR,,0.00,WeatherDisplay:10.37,2013-04-04 02:23:00,
2013-04-03 22:28:00,28.8,11.6,30.18,ESE,112,3.5,3.5,48,0.00,CLR,,0.00,WeatherDisplay:10.37,2013-04-04 02:28:00,
2013-04-03 22:33:00,28.6,11.4,30.18,ESE,112,3.5,3.5,48,0.00,CLR,,0.00,WeatherDisplay:10.37,2013-04-04 02:33:00,
2013-04-03 22:38:00,28.2,11.5,30.18,ESE,112,2.7,2.7,49,0.00,CLR,,0.00,WeatherDisplay:10.37,2013-04-04 02:38:00,
2013-04-03 22:43:00,27.9,11.2,30.18,ESE,112,2.3,2.3,49,0.00,CLR,,0.00,WeatherDisplay:10.37,2013-04-04 02:43:00,
2013-04-03 22:48:00,28.4,11.6,30.18,ESE,112,2.3,2.5,49,0.00,CLR,,0.00,WeatherDisplay:10.37,2013-04-04 02:48:00,
2013-04-03 22:53:00,27.7,11.0,30.18,ESE,112,0.0,0.0,49,0.00,CLR,,0.00,WeatherDisplay:10.37,2013-04-04 02:53:00,
2013-04-03 22:58:00,27.1,10.9,30.18,ESE,112,0.0,0.0,50,0.00,CLR,,0.00,WeatherDisplay:10.37,2013-04-04 02:58:00,
2013-04-03 23:03:00,26.6,11.7,30.19,ESE,112,0.0,0.0,53,0.00,CLR,,0.00,WeatherDisplay:10.37,2013-04-04 03:03:00,
2013-04-03 23:08:00,27.1,11.3,30.19,ESE,112,2.3,2.3,51,0.00,CLR,,0.00,WeatherDisplay:10.37,2013-04-04 03:08:00,
2013-04-03 23:13:00,26.8,11.1,30.19,ESE,112,0.0,0.0,51,0.00,CLR,,0.00,WeatherDisplay:10.37,2013-04-04 03:13:00,
2013-04-03 23:18:00,27.5,11.3,30.19,ESE,112,0.0,0.0,50,0.00,CLR,,0.00,WeatherDisplay:10.37,2013-04-04 03:18:00,
2013-04-03 23:23:00,26.6,10.9,30.19,ESE,112,0.0,0.0,51,0.00,CLR,,0.00,WeatherDisplay:10.37,2013-04-04 03:23:00,
2013-04-03 23:28:00,26.1,10.4,30.19,ESE,112,0.0,0.0,51,0.00,CLR,,0.00,WeatherDisplay:10.37,2013-04-04 03:28:00,
2013-04-03 23:33:00,25.5,11.1,30.19,ESE,112,0.0,0.0,54,0.00,CLR,,0.00,WeatherDisplay:10.37,2013-04-04 03:33:00,
2013-04-03 23:38:00,25.2,11.3,30.18,ESE,112,0.0,0.0,55,0.00,CLR,,0.00,WeatherDisplay:10.37,2013-04-04 03:38:00,
2013-04-03 23:43:00,25.0,11.1,30.18,ESE,112,0.0,0.7,55,0.00,CLR,,0.00,WeatherDisplay:10.37,2013-04-04 03:43:00,
2013-04-03 23:48:00,25.2,11.7,30.18,ESE,112,2.2,2.2,56,0.00,CLR,,0.00,WeatherDisplay:10.37,2013-04-04 03:48:00,
2013-04-03 23:53:00,24.4,12.5,30.19,ESE,112,2.3,2.3,60,0.00,CLR,,0.00,WeatherDisplay:10.37,2013-04-04 03:53:00,
2013-04-03 23:58:00,24.6,12.3,30.19,ESE,112,2.3,2.3,59,0.00,CLR,,0.00,WeatherDisplay:10.37,2013-04-04 03:58:00,